Time;durP1;ratioP1;P1;durP2;ratioP2;P2;SDS_P1;SDS_P2;PMS_P1;PMS_P2;Temp;Humidity;BMP_temperature;BMP_pressure;BME280_temperature;BME280_humidity;BME280_pressure;Samples;Min_cycle;Max_cycle;Signal;HPM_P1;HPM_P2
2022/12/14 00:01:46;;;;;;;21.33;13.57;;;;;;;-8.41;96.99;96975.84;6244609;28;20397;-66
2022/12/14 00:04:50;;;;;;;21.90;12.77;;;;;;;-8.37;97.93;96974.88;6241625;28;20238;-66
2022/12/14 00:07:52;;;;;;;24.83;14.10;;;;;;;-8.31;97.13;96983.28;6224074;28;20226;-66
2022/12/14 00:10:57;;;;;;;20.13;12.90;;;;;;;-8.30;97.75;96973.91;6239947;28;20250;-66
2022/12/14 00:14:01;;;;;;;23.03;14.23;;;;;;;-8.28;98.62;96975.53;6242919;28;20321;-67
2022/12/14 00:17:03;;;;;;;20.97;13.10;;;;;;;-8.24;98.71;96966.09;6243375;28;20231;-66
2022/12/14 00:20:05;;;;;;;22.47;13.40;;;;;;;-8.17;97.83;96957.44;6239224;28;20232;-66
2022/12/14 00:23:07;;;;;;;25.00;13.67;;;;;;;-8.15;98.72;96952.28;6243164;28;20228;-66
2022/12/14 00:26:14;;;;;;;23.40;14.33;;;;;;;-8.15;98.73;96940.34;6224032;28;20296;-67
2022/12/14 00:29:16;;;;;;;22.70;13.37;;;;;;;-8.17;97.70;96934.41;6242119;28;20282;-66
2022/12/14 00:32:19;;;;;;;22.50;14.13;;;;;;;-8.15;97.78;96937.78;6242626;28;20318;-66
2022/12/14 00:35:21;;;;;;;20.87;12.73;;;;;;;-8.11;97.93;96934.31;6242791;28;20324;-67
2022/12/14 00:38:23;;;;;;;26.20;14.67;;;;;;;-7.86;98.70;96937.22;6239029;28;20297;-67
2022/12/14 00:41:26;;;;;;;26.47;14.97;;;;;;;-7.87;98.29;96943.19;6241340;28;20235;-67
2022/12/14 00:44:28;;;;;;;26.50;14.83;;;;;;;-7.91;98.44;96944.16;6242808;28;20229;-67
2022/12/14 00:47:30;;;;;;;25.77;14.77;;;;;;;-7.89;99.68;96955.22;6241406;28;20230;-66
2022/12/14 00:50:40;;;;;;;26.03;15.37;;;;;;;-7.78;99.20;96947.31;6235593;28;20243;-66
2022/12/14 00:53:49;;;;;;;26.43;16.40;;;;;;;-7.64;98.79;96943.59;6241304;28;20312;-66
2022/12/14 00:56:51;;;;;;;30.03;17.27;;;;;;;-7.32;100.00;96936.94;6240783;28;20380;-66
2022/12/14 00:59:53;;;;;;;31.40;17.73;;;;;;;-7.21;99.15;96928.13;6238865;28;20250;-66
2022/12/14 01:02:55;;;;;;;28.53;17.97;;;;;;;-7.19;99.99;96926.38;6223826;28;20237;-66
2022/12/14 01:05:57;;;;;;;27.83;16.90;;;;;;;-7.18;99.12;96922.06;6217388;28;20566;-68
2022/12/14 01:08:59;;;;;;;23.43;14.83;;;;;;;-7.27;99.70;96925.69;6240913;28;20240;-68
2022/12/14 01:12:01;;;;;;;24.73;15.23;;;;;;;-7.35;98.90;96913.94;6206849;28;20226;-66
2022/12/14 01:15:04;;;;;;;36.07;20.40;;;;;;;-7.26;100.00;96917.13;6241312;28;20219;-65
2022/12/14 01:18:06;;;;;;;30.50;18.13;;;;;;;-7.05;100.00;96913.22;6242241;28;20228;-66
2022/12/14 01:21:14;;;;;;;27.40;17.60;;;;;;;-7.04;100.00;96907.22;6240962;28;20328;-69
2022/12/14 01:24:17;;;;;;;29.80;17.07;;;;;;;-6.98;100.00;96912.19;6239781;28;20221;-66
2022/12/14 01:27:20;;;;;;;31.10;18.27;;;;;;;-6.89;99.77;96916.28;6238012;28;20282;-66
2022/12/14 01:30:22;;;;;;;36.63;19.40;;;;;;;-6.83;100.00;96921.25;6240892;28;20242;-66
2022/12/14 01:33:24;;;;;;;34.60;19.37;;;;;;;-6.75;100.00;96930.44;6241212;28;20542;-66
2022/12/14 01:36:29;;;;;;;31.47;19.43;;;;;;;-6.65;100.00;96927.66;6242181;28;20231;-67
2022/12/14 01:39:31;;;;;;;36.00;20.23;;;;;;;-6.47;100.00;96925.47;6241416;28;20621;-67
2022/12/14 01:42:35;;;;;;;42.80;23.50;;;;;;;-6.29;100.00;96915.63;6240916;28;20257;-67
2022/12/14 01:45:37;;;;;;;33.67;21.00;;;;;;;-6.24;100.00;96912.03;6244647;28;20771;-66
2022/12/14 01:48:39;;;;;;;33.80;21.77;;;;;;;-6.23;99.67;96908.59;6240133;28;20365;-67
2022/12/14 01:51:52;;;;;;;39.47;21.50;;;;;;;-6.14;99.88;96910.91;6231252;28;20231;-66
2022/12/14 01:55:08;;;;;;;34.90;19.50;;;;;;;-6.09;99.75;96913.38;6220910;28;20224;-66
2022/12/14 01:58:12;;;;;;;34.50;19.80;;;;;;;-6.07;99.76;96899.59;6241584;28;20224;-67
2022/12/14 02:01:15;;;;;;;34.10;20.33;;;;;;;-6.05;99.56;96892.69;6241217;28;20220;-69
2022/12/14 02:04:19;;;;;;;32.80;19.63;;;;;;;-6.02;99.44;96884.91;6241376;28;20627;-66
2022/12/14 02:07:22;;;;;;;28.93;18.30;;;;;;;-6.05;99.63;96889.28;6223277;28;20239;-66
2022/12/14 02:10:28;;;;;;;29.60;18.77;;;;;;;-6.04;99.60;96872.97;6241103;28;20232;-66
2022/12/14 02:13:33;;;;;;;32.70;19.20;;;;;;;-6.03;99.46;96856.69;6241046;28;20313;-66
2022/12/14 02:16:35;;;;;;;28.80;17.40;;;;;;;-6.02;99.23;96850.69;6239126;28;20289;-68
2022/12/14 02:19:40;;;;;;;31.33;17.93;;;;;;;-6.00;99.57;96848.91;6239653;28;20228;-66
2022/12/14 02:23:11;;;;;;;31.30;18.97;;;;;;;-5.95;99.48;96841.91;6215459;28;20219;-66
2022/12/14 02:26:44;;;;;;;33.17;18.93;;;;;;;-5.80;99.43;96836.31;6222747;28;20235;-66
2022/12/14 02:29:59;;;;;;;32.60;18.53;;;;;;;-5.76;99.34;96826.75;6240643;28;20625;-68
2022/12/14 02:33:31;;;;;;;31.30;18.80;;;;;;;-5.71;99.58;96825.75;6221686;28;20223;-68
2022/12/14 02:37:01;;;;;;;30.70;18.20;;;;;;;-5.63;99.40;96828.91;6222440;28;20359;-68
2022/12/14 02:40:23;;;;;;;31.80;19.80;;;;;;;-5.53;98.95;96821.78;6240624;28;20235;-69
2022/12/14 02:43:37;;;;;;;32.97;19.67;;;;;;;-5.45;98.78;96819.78;6240101;28;20232;-66
2022/12/14 02:46:50;;;;;;;31.70;19.77;;;;;;;-5.32;98.99;96833.13;6237999;28;20227;-69
2022/12/14 02:50:12;;;;;;;34.20;20.27;;;;;;;-5.21;99.43;96813.06;6223665;28;20247;-66
2022/12/14 02:53:23;;;;;;;32.27;19.77;;;;;;;-5.13;98.92;96808.50;6241797;28;20227;-69
2022/12/14 02:56:38;;;;;;;32.13;18.87;;;;;;;-5.06;99.29;96806.56;6241503;28;20236;-66
2022/12/14 02:59:42;;;;;;;34.10;21.17;;;;;;;-5.00;98.82;96807.22;6237724;28;20605;-67
2022/12/14 03:02:46;;;;;;;31.40;19.07;;;;;;;-4.95;98.44;96805.31;6243750;28;20227;-67
2022/12/14 03:05:57;;;;;;;33.73;18.67;;;;;;;-4.91;98.15;96806.06;6241968;28;20224;-67
2022/12/14 03:09:09;;;;;;;29.17;19.10;;;;;;;-4.89;98.60;96794.81;6236687;28;20309;-67
2022/12/14 03:12:14;;;;;;;32.07;18.73;;;;;;;-4.86;98.83;96793.88;6244415;28;20239;-67
2022/12/14 03:15:19;;;;;;;32.20;19.07;;;;;;;-4.84;98.28;96797.25;6244044;28;20252;-67
2022/12/14 03:18:23;;;;;;;30.93;18.43;;;;;;;-4.82;98.10;96782.59;6227197;28;20854;-67
2022/12/14 03:21:35;;;;;;;34.37;20.20;;;;;;;-4.79;98.41;96800.47;6241497;28;20738;-67
2022/12/14 03:24:46;;;;;;;30.43;18.53;;;;;;;-4.75;98.52;96804.63;6241045;28;20282;-67
2022/12/14 03:27:56;;;;;;;30.97;20.00;;;;;;;-4.71;98.61;96783.06;6227193;28;20317;-67
2022/12/14 03:31:14;;;;;;;32.00;19.70;;;;;;;-4.66;98.32;96782.88;6243171;28;20720;-67
2022/12/14 03:34:21;;;;;;;32.33;18.47;;;;;;;-4.64;98.21;96781.09;6240706;28;20234;-67
2022/12/14 03:37:46;;;;;;;30.57;18.63;;;;;;;-4.62;97.98;96780.16;6231845;28;20235;-67
2022/12/14 03:40:58;;;;;;;31.20;19.20;;;;;;;-4.60;97.94;96767.25;6242608;28;20231;-67
2022/12/14 03:44:33;;;;;;;31.57;18.97;;;;;;;-4.58;98.10;96760.28;6243785;28;20227;-67
2022/12/14 03:48:19;;;;;;;28.27;18.40;;;;;;;-4.55;97.86;96771.31;6242245;28;20704;-67
2022/12/14 03:51:50;;;;;;;34.50;19.70;;;;;;;-4.50;98.28;96748.00;6219048;28;20239;-69
2022/12/14 03:55:00;;;;;;;28.97;18.33;;;;;;;-4.50;97.93;96740.28;6241993;28;20529;-68
2022/12/14 03:58:17;;;;;;;34.40;19.73;;;;;;;-4.48;98.22;96735.91;6231018;28;20215;-67
2022/12/14 04:01:39;;;;;;;31.83;19.53;;;;;;;-4.46;97.60;96740.09;6242645;28;20279;-67
2022/12/14 04:05:05;;;;;;;29.93;18.67;;;;;;;-4.43;97.94;96744.31;6243954;28;20281;-67
2022/12/14 04:08:36;;;;;;;30.80;19.17;;;;;;;-4.40;97.63;96749.34;6243074;28;20706;-66
2022/12/14 04:19:00;;;;;;;31.43;20.40;;;;;;;-4.30;97.58;96708.66;6218555;28;20748;-68
2022/12/14 04:22:10;;;;;;;29.07;18.67;;;;;;;-4.25;97.71;96710.16;6219011;28;20230;-67
2022/12/14 04:32:34;;;;;;;30.47;18.73;;;;;;;-4.19;97.40;96706.50;6218069;28;20323;-67
2022/12/14 04:35:41;;;;;;;33.83;20.67;;;;;;;-4.17;97.82;96715.00;6201582;28;20274;-67
2022/12/14 04:38:46;;;;;;;33.93;20.30;;;;;;;-4.16;97.16;96702.06;6218581;28;20586;-68
2022/12/14 04:41:52;;;;;;;36.97;21.47;;;;;;;-4.10;97.62;96696.72;6192943;28;20271;-67
2022/12/14 04:45:00;;;;;;;34.10;21.77;;;;;;;-4.03;96.99;96697.31;6209234;28;20232;-68
2022/12/14 04:48:14;;;;;;;32.87;21.33;;;;;;;-4.00;97.03;96697.19;6201818;28;20220;-67
2022/12/14 04:51:31;;;;;;;35.13;21.77;;;;;;;-3.99;96.58;96688.53;6223530;28;20740;-67
2022/12/14 04:54:51;;;;;;;30.53;19.90;;;;;;;-3.98;96.58;96689.38;6194608;28;20371;-67
2022/12/14 04:58:08;;;;;;;33.97;21.50;;;;;;;-3.95;97.23;96677.22;6217431;28;20248;-67
2022/12/14 05:01:48;;;;;;;35.80;21.70;;;;;;;-3.91;96.81;96663.34;6216579;28;20306;-68
2022/12/14 05:05:10;;;;;;;34.57;20.73;;;;;;;-3.88;96.79;96636.56;6203681;28;20239;-68
2022/12/14 05:08:31;;;;;;;32.13;19.70;;;;;;;-3.87;96.44;96605.59;6216758;28;20615;-67
2022/12/14 05:12:09;;;;;;;33.90;20.50;;;;;;;-3.87;96.60;96607.34;6216476;28;20243;-67
2022/12/14 05:15:20;;;;;;;31.30;20.17;;;;;;;-3.84;96.59;96636.41;6155215;28;20278;-67
2022/12/14 05:18:22;;;;;;;34.47;21.30;;;;;;;-3.82;97.07;96629.47;6219770;28;20627;-67
2022/12/14 05:24:45;;;;;;;33.77;21.30;;;;;;;-3.76;96.01;96628.34;6219301;28;20258;-67
2022/12/14 05:27:47;;;;;;;31.43;19.63;;;;;;;-3.74;96.42;96645.44;6198749;28;20738;-67
2022/12/14 05:30:50;;;;;;;34.20;20.27;;;;;;;-3.75;96.52;96638.59;6217915;28;20699;-68
2022/12/14 05:33:54;;;;;;;30.80;19.77;;;;;;;-3.73;96.49;96633.41;6221654;28;20226;-67
2022/12/14 05:36:56;;;;;;;38.27;20.00;;;;;;;-3.69;95.74;96636.69;6218572;28;20235;-67
2022/12/14 05:39:59;;;;;;;33.73;20.27;;;;;;;-3.70;96.50;96638.44;6211799;28;20231;-67
2022/12/14 05:43:09;;;;;;;38.97;21.50;;;;;;;-3.70;96.26;96638.44;6220750;28;20231;-67
2022/12/14 05:46:11;;;;;;;31.57;21.23;;;;;;;-3.66;95.67;96639.13;6216122;28;20276;-67
2022/12/14 05:49:14;;;;;;;38.03;23.33;;;;;;;-3.66;96.02;96645.13;6218293;28;20219;-67
2022/12/14 05:52:16;;;;;;;31.60;21.17;;;;;;;-3.65;96.10;96636.50;6215491;28;20444;-68
2022/12/14 05:55:18;;;;;;;32.63;19.90;;;;;;;-3.63;95.51;96644.16;6195697;28;20387;-68
2022/12/14 05:58:20;;;;;;;30.50;19.37;;;;;;;-3.63;96.11;96660.47;6214853;28;20287;-67
2022/12/14 06:01:22;;;;;;;31.80;19.70;;;;;;;-3.60;95.64;96664.69;6204660;28;20238;-68
2022/12/14 06:04:25;;;;;;;31.10;19.50;;;;;;;-3.58;95.60;96652.53;6211361;28;20236;-68
2022/12/14 06:07:27;;;;;;;31.20;20.10;;;;;;;-3.57;95.13;96654.22;6213473;28;20662;-68
2022/12/14 06:10:29;;;;;;;39.77;20.90;;;;;;;-3.55;95.89;96644.69;6199583;28;20235;-68
2022/12/14 06:13:31;;;;;;;29.23;19.47;;;;;;;-3.54;95.25;96646.38;6218063;28;20613;-67
2022/12/14 06:16:34;;;;;;;32.23;20.20;;;;;;;-3.53;95.40;96653.22;6220630;28;20310;-68
2022/12/14 06:19:36;;;;;;;34.63;20.80;;;;;;;-3.51;95.59;96649.66;6237089;28;20229;-68
2022/12/14 06:22:39;;;;;;;34.53;19.13;;;;;;;-3.51;94.89;96657.41;6236929;28;20850;-68
2022/12/14 06:25:53;;;;;;;33.07;19.53;;;;;;;-3.50;95.02;96650.50;6239451;28;20306;-68
2022/12/14 06:28:56;;;;;;;28.83;18.90;;;;;;;-3.50;94.72;96633.31;6239246;28;20231;-67
2022/12/14 06:32:00;;;;;;;31.97;20.80;;;;;;;-3.48;95.55;96634.06;6238617;28;20718;-67
2022/12/14 06:35:02;;;;;;;33.53;20.97;;;;;;;-3.49;95.25;96621.22;6237073;28;20288;-68
2022/12/14 06:38:05;;;;;;;31.40;20.07;;;;;;;-3.50;95.30;96632.47;6244117;28;20231;-67
2022/12/14 06:41:08;;;;;;;33.83;19.53;;;;;;;-3.47;95.36;96627.16;6221180;28;20289;-68
2022/12/14 06:44:12;;;;;;;32.70;20.17;;;;;;;-3.46;94.73;96624.50;6243944;28;20604;-67
2022/12/14 06:47:14;;;;;;;33.23;20.53;;;;;;;-3.47;94.71;96625.41;6243119;28;20233;-67
2022/12/14 06:50:16;;;;;;;35.93;20.60;;;;;;;-3.45;94.74;96612.47;6235508;28;20828;-68
2022/12/14 06:53:18;;;;;;;32.73;20.13;;;;;;;-3.46;95.01;96611.63;6245850;28;20251;-68
2022/12/14 06:56:22;;;;;;;33.23;20.33;;;;;;;-3.46;95.04;96629.66;6233684;28;20516;-67
2022/12/14 06:59:24;;;;;;;32.53;19.63;;;;;;;-3.43;95.04;96616.66;6243493;28;20321;-68
2022/12/14 07:02:26;;;;;;;35.80;20.90;;;;;;;-3.40;94.92;96624.28;6235411;28;20310;-68
2022/12/14 07:05:28;;;;;;;37.47;21.33;;;;;;;-3.38;94.93;96608.72;6235644;28;20238;-67
2022/12/14 07:08:32;;;;;;;34.00;20.90;;;;;;;-3.37;94.23;96605.22;6244813;28;20767;-68
2022/12/14 07:11:34;;;;;;;34.23;20.67;;;;;;;-3.37;94.76;96611.22;6224332;28;20242;-67
2022/12/14 07:14:36;;;;;;;32.47;20.30;;;;;;;-3.36;94.32;96606.91;6237232;28;20219;-68
2022/12/14 07:17:38;;;;;;;34.23;20.23;;;;;;;-3.35;94.26;96609.44;6244067;28;20220;-68
2022/12/14 07:20:40;;;;;;;35.03;20.13;;;;;;;-3.31;94.10;96602.41;6234924;28;20367;-68
2022/12/14 07:23:44;;;;;;;34.40;20.70;;;;;;;-3.29;94.47;96597.19;6234737;28;20325;-68
2022/12/14 07:26:46;;;;;;;34.53;20.03;;;;;;;-3.27;93.75;96595.34;6244485;28;20304;-68
2022/12/14 07:29:48;;;;;;;33.17;20.27;;;;;;;-3.27;93.75;96585.88;6243799;28;20322;-67
2022/12/14 07:32:50;;;;;;;30.63;19.37;;;;;;;-3.25;94.14;96584.06;6234376;28;20222;-68
2022/12/14 07:36:00;;;;;;;33.03;19.80;;;;;;;-3.19;93.85;96582.97;6244033;28;20317;-67
2022/12/14 07:39:02;;;;;;;31.63;18.67;;;;;;;-3.18;93.92;96593.22;6234345;28;20224;-68
2022/12/14 07:42:05;;;;;;;31.87;20.13;;;;;;;-3.15;93.74;96594.84;6235352;28;20782;-67
2022/12/14 07:45:09;;;;;;;33.93;19.33;;;;;;;-3.13;93.90;96593.88;6244327;28;20227;-67
2022/12/14 07:48:11;;;;;;;29.60;17.77;;;;;;;-3.08;93.57;96596.22;6244170;28;20235;-68
2022/12/14 07:51:16;;;;;;;30.23;19.90;;;;;;;-3.07;93.30;96601.34;6253126;28;20694;-67
2022/12/14 07:54:18;;;;;;;30.50;19.13;;;;;;;-3.01;93.19;96600.25;6225671;28;20225;-68
2022/12/14 07:57:20;;;;;;;30.67;19.60;;;;;;;-3.00;92.91;96599.34;6242630;28;20302;-67
2022/12/14 08:00:22;;;;;;;31.73;20.07;;;;;;;-2.92;92.74;96599.00;6242468;28;20219;-68
2022/12/14 08:03:24;;;;;;;31.03;19.87;;;;;;;-2.91;92.33;96598.94;6244116;28;20283;-68
2022/12/14 08:06:29;;;;;;;29.03;19.43;;;;;;;-2.86;92.13;96603.88;6240814;28;20219;-67
2022/12/14 08:09:31;;;;;;;30.03;18.23;;;;;;;-2.87;91.60;96597.88;6225390;28;20231;-67
2022/12/14 08:12:34;;;;;;;31.77;19.20;;;;;;;-2.84;91.27;96602.91;6241805;28;20231;-68
2022/12/14 08:15:37;;;;;;;31.23;19.77;;;;;;;-2.83;91.39;96598.56;6242565;28;20705;-68
2022/12/14 08:18:40;;;;;;;30.43;19.67;;;;;;;-2.79;91.34;96589.78;6240311;28;20228;-68
2022/12/14 08:21:42;;;;;;;34.47;19.97;;;;;;;-2.76;91.26;96599.97;6242526;28;20222;-69
2022/12/14 08:24:44;;;;;;;33.80;20.27;;;;;;;-2.73;91.20;96592.09;6243624;28;20356;-68
2022/12/14 08:27:50;;;;;;;30.00;18.67;;;;;;;-2.69;91.13;96596.19;6220444;28;20327;-67
2022/12/14 08:30:52;;;;;;;31.80;20.00;;;;;;;-2.67;90.25;96599.56;6241218;28;20273;-67
2022/12/14 08:33:56;;;;;;;31.60;19.63;;;;;;;-2.69;90.34;96603.94;6240284;28;20238;-68
2022/12/14 08:36:58;;;;;;;30.20;19.97;;;;;;;-2.68;90.09;96614.19;6242577;28;20267;-67
2022/12/14 08:40:01;;;;;;;34.90;20.67;;;;;;;-2.67;90.19;96610.72;6241755;28;20651;-68
2022/12/14 08:43:05;;;;;;;33.97;20.17;;;;;;;-2.68;89.48;96621.94;6221361;28;20611;-67
2022/12/14 08:46:08;;;;;;;30.77;19.07;;;;;;;-2.65;90.02;96602.91;6232053;28;20742;-68
2022/12/14 08:49:11;;;;;;;31.57;19.67;;;;;;;-2.64;90.05;96608.00;6243505;28;21726;-67
2022/12/14 08:52:13;;;;;;;31.37;19.43;;;;;;;-2.59;89.92;96607.78;6244475;28;20380;-68
2022/12/14 08:55:15;;;;;;;31.73;20.63;;;;;;;-2.55;90.02;96599.00;6243409;28;20227;-68
2022/12/14 08:58:18;;;;;;;32.67;20.60;;;;;;;-2.50;89.34;96598.81;6215436;28;20245;-67
2022/12/14 09:01:23;;;;;;;29.30;19.63;;;;;;;-2.46;89.36;96596.00;6244125;28;20318;-67
2022/12/14 09:04:34;;;;;;;31.60;19.87;;;;;;;-2.44;89.54;96598.50;6228268;28;20228;-67
2022/12/14 09:07:36;;;;;;;32.30;19.87;;;;;;;-2.37;89.48;96592.13;6221821;28;20223;-67
2022/12/14 09:10:38;;;;;;;33.87;19.60;;;;;;;-2.29;89.76;96597.78;6240925;28;20242;-68
2022/12/14 09:13:41;;;;;;;29.23;18.67;;;;;;;-2.31;88.53;96584.13;6240818;28;20241;-67
2022/12/14 09:16:43;;;;;;;31.20;20.87;;;;;;;-2.31;88.23;96589.28;6244020;28;20284;-67
2022/12/14 09:19:45;;;;;;;33.93;20.43;;;;;;;-2.26;88.67;96580.41;6222822;28;20234;-67
2022/12/14 09:22:50;;;;;;;31.33;20.00;;;;;;;-2.20;88.66;96581.88;6242327;28;20246;-67
2022/12/14 09:25:59;;;;;;;32.00;19.90;;;;;;;-2.17;88.28;96561.03;6241580;28;20285;-67
2022/12/14 09:29:02;;;;;;;30.17;18.93;;;;;;;-2.11;88.11;96565.09;6241234;28;20224;-68
2022/12/14 09:32:04;;;;;;;31.57;20.07;;;;;;;-2.06;87.80;96565.69;6242329;28;20264;-67
2022/12/14 09:35:07;;;;;;;30.07;19.83;;;;;;;-2.02;87.48;96555.13;6240540;28;20707;-68
2022/12/14 09:38:09;;;;;;;31.67;19.83;;;;;;;-2.03;86.37;96544.88;6231153;28;20610;-68
2022/12/14 09:41:38;;;;;;;33.00;19.00;;;;;;;-2.05;86.85;96544.09;6222261;28;20300;-68
2022/12/14 09:45:08;;;;;;;32.20;20.03;;;;;;;-1.98;87.21;96543.72;6238114;28;20230;-67
2022/12/14 09:48:16;;;;;;;39.03;21.00;;;;;;;-1.99;86.49;96536.88;6239784;28;20231;-67
2022/12/14 09:51:21;;;;;;;32.43;19.50;;;;;;;-1.82;86.31;96535.22;6224703;28;20314;-67
2022/12/14 09:54:27;;;;;;;30.63;19.73;;;;;;;-1.71;86.09;96531.19;6231758;28;20238;-67
2022/12/14 09:57:38;;;;;;;33.77;20.20;;;;;;;-1.71;85.50;96522.59;6239179;28;20215;-67
2022/12/14 10:00:46;;;;;;;30.50;19.40;;;;;;;-1.65;85.69;96517.94;6241590;28;20576;-68
2022/12/14 10:04:32;;;;;;;34.50;20.37;;;;;;;-1.62;85.44;96512.63;6239313;28;20228;-68
2022/12/14 10:07:46;;;;;;;35.70;21.27;;;;;;;-1.51;85.43;96505.16;6241313;28;20227;-68
2022/12/14 10:11:06;;;;;;;34.87;20.37;;;;;;;-1.46;84.87;96512.66;6222188;28;20329;-68
2022/12/14 10:14:37;;;;;;;29.90;18.73;;;;;;;-1.53;84.68;96503.56;6230184;28;20231;-68
2022/12/14 10:18:12;;;;;;;29.93;18.63;;;;;;;-1.54;84.22;96496.69;6219935;28;22113;-68
2022/12/14 10:21:58;;;;;;;33.80;20.80;;;;;;;-1.53;85.17;96499.22;6239248;28;20230;-68
2022/12/14 10:25:10;;;;;;;33.87;19.93;;;;;;;-1.47;84.43;96490.28;6223180;28;20238;-68
2022/12/14 10:28:18;;;;;;;30.23;19.43;;;;;;;-1.41;84.29;96486.56;6240244;28;20422;-68
2022/12/14 10:32:17;;;;;;;31.30;19.50;;;;;;;-1.23;83.91;96478.66;6237950;28;20228;-67
2022/12/14 10:35:41;;;;;;;31.20;18.00;;;;;;;-1.24;82.70;96469.22;6119817;28;20230;-67
2022/12/14 10:39:18;;;;;;;30.60;19.53;;;;;;;-1.15;83.19;96453.22;6145969;28;20235;-68
2022/12/14 10:42:30;;;;;;;29.20;17.57;;;;;;;-1.00;82.86;96450.72;6238838;28;20231;-68
2022/12/14 10:45:53;;;;;;;32.17;19.87;;;;;;;-0.82;81.68;96447.97;6237392;28;20244;-68
2022/12/14 10:49:28;;;;;;;31.90;19.30;;;;;;;-0.68;81.25;96434.22;6240272;28;20724;-68
2022/12/14 10:52:37;;;;;;;31.50;19.03;;;;;;;-0.80;80.49;96425.38;6239131;28;20722;-68
2022/12/14 10:55:41;;;;;;;35.97;19.10;;;;;;;-0.96;81.14;96413.38;6238307;28;20231;-68
2022/12/14 10:58:43;;;;;;;32.23;19.53;;;;;;;-0.94;81.86;96406.38;6236251;28;20572;-68
2022/12/14 11:02:15;;;;;;;31.83;19.47;;;;;;;-0.85;81.61;96396.31;6221664;28;20707;-68
2022/12/14 11:05:35;;;;;;;32.43;19.30;;;;;;;-0.90;81.29;96402.69;6239187;28;20224;-68
2022/12/14 11:08:43;;;;;;;32.63;19.60;;;;;;;-0.90;81.68;96390.56;6226301;28;20228;-68
2022/12/14 11:12:00;;;;;;;33.33;19.47;;;;;;;-0.74;81.91;96390.56;6239979;28;20634;-68
2022/12/14 11:15:05;;;;;;;30.10;19.37;;;;;;;-0.71;81.11;96385.22;6221166;28;20339;-67
2022/12/14 11:18:30;;;;;;;30.43;19.03;;;;;;;-0.66;80.82;96382.34;6238760;28;20527;-69
2022/12/14 11:21:36;;;;;;;31.13;19.47;;;;;;;-0.80;80.75;96383.94;6240169;28;20703;-68
2022/12/14 11:24:45;;;;;;;32.70;18.90;;;;;;;-0.70;80.64;96378.28;6246288;28;20262;-68
2022/12/14 11:27:47;;;;;;;33.17;19.80;;;;;;;-0.63;80.60;96361.44;6243334;28;20279;-67
2022/12/14 11:31:04;;;;;;;29.97;19.47;;;;;;;-0.61;80.30;96354.44;6233787;28;20238;-68
2022/12/14 11:34:38;;;;;;;31.40;19.17;;;;;;;-0.66;79.70;96346.91;6249069;28;20231;-68
2022/12/14 11:37:40;;;;;;;32.13;19.53;;;;;;;-0.66;80.45;96352.09;6242714;28;20231;-68
2022/12/14 11:40:43;;;;;;;31.93;19.67;;;;;;;-0.52;80.05;96346.97;6242666;28;20228;-68
2022/12/14 11:43:58;;;;;;;29.37;18.53;;;;;;;-0.49;79.08;96348.53;6242985;28;20663;-68
2022/12/14 11:47:10;;;;;;;33.70;21.37;;;;;;;-0.46;79.61;96351.78;6242901;28;20227;-68
2022/12/14 11:50:24;;;;;;;33.97;20.33;;;;;;;-0.46;79.86;96350.94;6251826;28;20239;-68
2022/12/14 11:53:26;;;;;;;34.00;21.30;;;;;;;-0.37;79.27;96350.41;6237743;28;20309;-68
2022/12/14 11:56:28;;;;;;;32.07;19.80;;;;;;;-0.35;79.05;96340.78;6242901;28;20231;-67
2022/12/14 11:59:38;;;;;;;31.03;19.17;;;;;;;-0.06;78.19;96334.72;6243142;28;20257;-68
2022/12/14 12:03:06;;;;;;;32.27;19.00;;;;;;;-0.04;77.08;96330.28;6243511;28;20249;-68
2022/12/14 12:06:13;;;;;;;29.80;19.13;;;;;;;-0.34;78.09;96342.47;6224412;28;20227;-68
2022/12/14 12:09:29;;;;;;;32.43;20.00;;;;;;;-0.43;78.48;96328.28;6243340;28;20227;-68
2022/12/14 12:12:32;;;;;;;35.60;20.70;;;;;;;-0.49;79.26;96320.84;6238518;28;20231;-67
2022/12/14 12:15:36;;;;;;;29.00;19.93;;;;;;;-0.48;79.47;96327.72;6243964;28;20291;-69
2022/12/14 12:18:45;;;;;;;32.47;20.20;;;;;;;-0.41;80.24;96312.66;6242061;28;20223;-68
2022/12/14 12:21:47;;;;;;;34.43;20.40;;;;;;;-0.31;78.93;96298.22;6240922;28;20224;-68
2022/12/14 12:24:59;;;;;;;35.97;20.97;;;;;;;-0.15;79.31;96287.75;6232878;28;20230;-68
2022/12/14 12:28:33;;;;;;;31.23;19.57;;;;;;;-0.39;78.99;96314.22;6224010;28;20717;-67
2022/12/14 12:31:42;;;;;;;34.87;20.03;;;;;;;-0.44;79.45;96295.53;6241421;28;20591;-68
2022/12/14 12:34:53;;;;;;;33.30;20.37;;;;;;;-0.46;79.84;96280.97;6241609;28;20234;-67
2022/12/14 12:38:02;;;;;;;33.63;20.60;;;;;;;-0.49;79.71;96283.75;6242133;28;20726;-68
2022/12/14 12:41:20;;;;;;;33.10;20.23;;;;;;;-0.62;80.17;96294.00;6241761;28;20228;-68
2022/12/14 12:44:39;;;;;;;33.97;20.67;;;;;;;-0.72;80.58;96292.88;6236089;28;20722;-67
2022/12/14 12:48:06;;;;;;;33.43;20.30;;;;;;;-0.75;80.79;96277.50;6232522;28;20281;-67
2022/12/14 12:51:32;;;;;;;33.63;20.70;;;;;;;-0.82;81.41;96265.84;6250985;28;20219;-67
2022/12/14 12:54:41;;;;;;;32.77;20.40;;;;;;;-0.68;81.24;96249.47;6216231;28;20369;-68
2022/12/14 12:57:48;;;;;;;32.80;21.07;;;;;;;-0.69;81.18;96253.81;6241650;28;20326;-68
2022/12/14 13:00:54;;;;;;;32.73;20.23;;;;;;;-0.75;81.38;96246.44;6242413;28;20365;-68
2022/12/14 13:04:03;;;;;;;33.43;20.80;;;;;;;-0.76;81.47;96232.63;6240788;28;20264;-67
2022/12/14 13:07:13;;;;;;;32.37;21.40;;;;;;;-0.70;81.36;96225.44;6240560;28;20720;-68
2022/12/14 13:10:33;;;;;;;34.03;19.43;;;;;;;-0.67;81.64;96227.84;6207016;28;20245;-68
2022/12/14 13:13:41;;;;;;;37.70;21.53;;;;;;;-0.64;81.75;96215.53;6241083;28;20239;-67
2022/12/14 13:16:45;;;;;;;33.97;21.20;;;;;;;-0.70;81.20;96212.50;6234128;28;20228;-68
2022/12/14 13:19:50;;;;;;;33.37;21.47;;;;;;;-0.82;81.32;96193.34;6239930;28;20262;-69
2022/12/14 13:22:57;;;;;;;32.77;20.40;;;;;;;-0.91;82.67;96202.47;6224267;28;20598;-68
2022/12/14 13:26:57;;;;;;;32.70;21.07;;;;;;;-0.92;82.31;96203.41;6241103;28;20223;-68
2022/12/14 13:30:50;;;;;;;32.80;20.33;;;;;;;-0.95;82.40;96208.75;6240002;28;20703;-67
2022/12/14 13:34:21;;;;;;;34.23;20.97;;;;;;;-0.97;82.75;96209.75;6120496;28;20235;-67
2022/12/14 13:37:46;;;;;;;31.07;20.03;;;;;;;-1.02;82.35;96199.69;6120384;28;20262;-68
2022/12/14 13:40:54;;;;;;;32.43;20.80;;;;;;;-1.05;82.91;96191.25;6116903;28;20262;-68
2022/12/14 13:44:24;;;;;;;36.10;22.10;;;;;;;-1.16;83.15;96199.63;6118519;28;20316;-68
2022/12/14 13:47:44;;;;;;;36.17;21.33;;;;;;;-1.20;83.44;96203.34;6111949;28;20222;-68
2022/12/14 13:51:03;;;;;;;33.53;21.77;;;;;;;-1.23;83.96;96191.41;6127375;28;20246;-67
2022/12/14 13:54:26;;;;;;;34.33;20.47;;;;;;;-1.21;83.76;96184.38;6101295;28;20663;-67
2022/12/14 13:57:28;;;;;;;29.37;19.70;;;;;;;-1.20;84.20;96177.47;6120602;28;20234;-67
2022/12/14 14:00:51;;;;;;;35.53;21.67;;;;;;;-1.19;84.69;96177.34;6120349;29;20227;-67
2022/12/14 14:04:17;;;;;;;35.23;22.20;;;;;;;-1.22;84.33;96185.31;6156853;28;20703;-68
2022/12/14 14:07:56;;;;;;;35.60;22.13;;;;;;;-1.25;84.76;96184.63;6231234;28;20786;-67
2022/12/14 14:11:21;;;;;;;32.97;21.17;;;;;;;-1.25;84.51;96174.28;6238526;28;20822;-67
2022/12/14 14:14:51;;;;;;;37.20;22.87;;;;;;;-1.27;84.89;96176.97;6239120;28;20249;-68
2022/12/14 14:18:00;;;;;;;37.80;23.27;;;;;;;-1.35;85.18;96165.38;6229881;28;20281;-67
2022/12/14 14:21:11;;;;;;;33.70;21.77;;;;;;;-1.36;85.63;96150.78;6231976;28;20236;-67
2022/12/14 14:24:16;;;;;;;39.07;23.53;;;;;;;-1.40;85.73;96150.16;6239521;28;20599;-67
2022/12/14 14:27:22;;;;;;;34.93;23.00;;;;;;;-1.42;85.44;96158.91;6242326;28;20233;-68
2022/12/14 14:30:34;;;;;;;37.50;23.67;;;;;;;-1.44;86.01;96138.28;6220626;28;20688;-67
2022/12/14 14:33:53;;;;;;;35.97;22.07;;;;;;;-1.49;86.18;96128.19;6244626;28;20745;-67
2022/12/14 14:36:56;;;;;;;38.00;23.97;;;;;;;-1.55;86.50;96127.72;6239823;28;20664;-68
2022/12/14 14:40:06;;;;;;;38.50;23.80;;;;;;;-1.64;86.57;96116.16;6241836;28;20223;-68
2022/12/14 14:43:37;;;;;;;39.37;23.73;;;;;;;-1.69;86.80;96131.09;6242664;28;20234;-67
2022/12/14 14:46:46;;;;;;;36.60;23.50;;;;;;;-1.68;87.41;96144.84;6237878;28;20318;-67
2022/12/14 14:49:59;;;;;;;38.13;24.50;;;;;;;-1.72;87.32;96151.97;6241305;28;20564;-68
2022/12/14 14:53:16;;;;;;;38.03;23.40;;;;;;;-1.72;87.61;96170.06;6239286;28;20365;-67